Time;durP1;ratioP1;P1;durP2;ratioP2;P2;SDS_P1;SDS_P2;PMS_P1;PMS_P2;Temp;Humidity;BMP_temperature;BMP_pressure;BME280_temperature;BME280_humidity;BME280_pressure;Samples;Min_cycle;Max_cycle;Signal;HPM_P1;HPM_P2
2023/10/09 00:01:01;;;;;;;5.97;3.40;;;18.80;63.10;;;;;;5075209;28;20194;-64
2023/10/09 00:03:29;;;;;;;5.80;3.47;;;18.80;63.20;;;;;;5075188;28;20798;-64
2023/10/09 00:05:57;;;;;;;5.60;3.55;;;18.80;63.10;;;;;;5075267;28;20187;-63
2023/10/09 00:08:30;;;;;;;8.80;3.85;;;18.80;63.10;;;;;;5075270;28;20323;-64
2023/10/09 00:11:13;;;;;;;5.38;3.50;;;18.80;63.10;;;;;;5075152;28;20195;-62
2023/10/09 00:13:48;;;;;;;6.55;3.60;;;18.80;63.00;;;;;;5075216;28;20196;-64
2023/10/09 00:16:22;;;;;;;4.88;3.40;;;18.90;63.10;;;;;;5074563;28;20222;-63
2023/10/09 00:18:50;;;;;;;7.40;4.05;;;18.80;63.00;;;;;;5074822;28;20191;-63
2023/10/09 00:21:20;;;;;;;6.72;3.70;;;18.80;63.00;;;;;;5074707;28;20237;-64
2023/10/09 00:23:53;;;;;;;6.32;3.88;;;18.80;63.00;;;;;;5074611;28;20269;-64
2023/10/09 00:26:26;;;;;;;4.97;3.65;;;18.80;62.90;;;;;;5074623;28;20197;-63
2023/10/09 00:29:15;;;;;;;6.03;4.32;;;18.80;62.80;;;;;;5074915;28;20292;-63
2023/10/09 00:31:49;;;;;;;5.35;3.55;;;18.80;63.70;;;;;;5074956;28;20305;-64
2023/10/09 00:34:19;;;;;;;7.15;3.63;;;18.80;62.80;;;;;;5074512;28;20189;-64
2023/10/09 00:36:51;;;;;;;4.50;3.47;;;18.80;62.80;;;;;;5074490;28;20219;-64
2023/10/09 00:39:43;;;;;;;5.40;3.47;;;18.80;62.80;;;;;;5074800;28;20241;-62
2023/10/09 00:42:10;;;;;;;5.57;3.33;;;18.80;62.70;;;;;;5074214;28;20226;-63
2023/10/09 00:44:41;;;;;;;4.85;3.60;;;18.80;62.70;;;;;;5073435;28;20250;-63
2023/10/09 00:47:33;;;;;;;6.55;3.70;;;18.80;63.50;;;;;;5074628;28;20218;-64
2023/10/09 00:50:10;;;;;;;4.93;3.40;;;18.80;62.60;;;;;;5074580;28;20285;-63
2023/10/09 00:52:42;;;;;;;4.85;3.50;;;18.80;62.60;;;;;;5074328;28;20214;-64
2023/10/09 00:55:14;;;;;;;5.32;3.88;;;18.80;62.60;;;;;;5074431;28;20191;-63
2023/10/09 00:57:50;;;;;;;5.47;3.22;;;18.70;62.50;;;;;;5074431;28;20219;-62
2023/10/09 01:00:32;;;;;;;4.95;3.25;;;18.80;62.60;;;;;;5073820;28;20204;-64
2023/10/09 01:03:18;;;;;;;4.95;3.15;;;18.70;62.40;;;;;;5074279;28;20222;-64
2023/10/09 01:05:51;;;;;;;6.18;3.67;;;18.80;62.50;;;;;;5073839;28;20187;-63
2023/10/09 01:08:25;;;;;;;4.15;3.35;;;18.80;62.50;;;;;;5073967;28;20222;-63
2023/10/09 01:10:56;;;;;;;5.65;3.05;;;18.70;62.40;;;;;;5074122;28;20194;-62
2023/10/09 01:16:16;;;;;;;4.68;3.45;;;18.80;62.40;;;;;;5071325;28;20230;-64
2023/10/09 01:18:44;;;;;;;5.93;3.28;;;18.80;62.40;;;;;;5074159;28;20250;-64
2023/10/09 01:21:14;;;;;;;6.53;3.67;;;18.80;62.40;;;;;;5073368;28;20280;-62
2023/10/09 01:24:02;;;;;;;5.07;3.45;;;18.70;62.20;;;;;;5073793;28;20230;-64
2023/10/09 01:26:43;;;;;;;;;;;;;;;;;;;;;
2023/10/09 01:29:14;;;;;;;5.20;3.47;;;18.70;62.20;;;;;;5073361;28;20273;-64
2023/10/09 01:31:51;;;;;;;4.53;3.25;;;18.70;62.10;;;;;;5073600;28;20564;-64
2023/10/09 01:34:23;;;;;;;5.35;3.30;;;18.70;62.10;;;;;;5073662;28;20194;-64
2023/10/09 01:36:55;;;;;;;6.40;3.80;;;18.70;62.10;;;;;;5072985;28;20229;-61
2023/10/09 01:40:06;;;;;;;5.70;3.15;;;18.70;62.10;;;;;;5073529;28;20226;-64
2023/10/09 01:45:43;;;;;;;4.22;3.22;;;18.70;61.90;;;;;;5021344;28;20281;-63
2023/10/09 01:48:12;;;;;;;4.82;3.40;;;18.70;61.90;;;;;;5072943;28;20697;-64
2023/10/09 01:50:41;;;;;;;6.43;3.90;;;18.70;61.90;;;;;;5072855;28;20187;-64
2023/10/09 01:53:09;;;;;;;5.38;3.53;;;18.70;61.80;;;;;;5072999;28;20218;-64
2023/10/09 01:58:24;;;;;;;6.70;3.47;;;18.60;62.50;;;;;;5071115;28;20223;-64
2023/10/09 02:00:54;;;;;;;4.70;3.33;;;18.70;61.80;;;;;;5073149;28;20191;-64
2023/10/09 02:03:26;;;;;;;4.32;3.28;;;18.70;61.80;;;;;;5072798;28;20230;-63
2023/10/09 02:05:59;;;;;;;4.10;3.20;;;18.70;61.70;;;;;;5072787;28;20276;-62
2023/10/09 02:08:35;;;;;;;5.50;3.35;;;18.60;61.60;;;;;;5073096;28;20218;-63
2023/10/09 02:11:07;;;;;;;5.82;3.88;;;18.70;61.70;;;;;;5072849;28;20285;-60
2023/10/09 02:13:36;;;;;;;6.65;3.50;;;18.60;61.60;;;;;;5072472;28;20754;-62
2023/10/09 02:16:14;;;;;;;5.30;3.47;;;18.60;61.50;;;;;;5072506;28;20648;-64
2023/10/09 02:18:53;;;;;;;4.38;3.10;;;18.70;61.60;;;;;;5072749;28;20684;-63
2023/10/09 02:21:33;;;;;;;5.43;3.40;;;18.70;61.50;;;;;;5072449;28;20190;-64
2023/10/09 02:24:05;;;;;;;5.22;3.20;;;18.60;61.40;;;;;;5072366;28;20256;-63
2023/10/09 02:27:06;;;;;;;4.72;3.30;;;18.60;61.40;;;;;;5071975;28;20238;-63
2023/10/09 02:29:35;;;;;;;3.58;2.67;;;18.70;61.40;;;;;;5072177;28;20201;-63
2023/10/09 02:32:13;;;;;;;4.43;3.25;;;18.60;61.30;;;;;;5072583;28;20215;-61
2023/10/09 02:34:41;;;;;;;4.47;3.33;;;18.60;61.30;;;;;;5072350;28;20312;-63
2023/10/09 02:37:12;;;;;;;6.45;3.30;;;18.60;61.20;;;;;;5072174;28;20215;-63
2023/10/09 02:40:31;;;;;;;4.43;3.53;;;18.60;61.20;;;;;;5072273;28;20831;-64
2023/10/09 02:42:59;;;;;;;5.10;3.33;;;18.60;61.10;;;;;;5072320;28;20364;-62
2023/10/09 02:45:34;;;;;;;4.45;3.05;;;18.60;61.10;;;;;;5072377;28;20218;-64
2023/10/09 02:48:10;;;;;;;5.05;3.35;;;18.60;61.00;;;;;;5072285;28;20574;-64
2023/10/09 02:50:44;;;;;;;5.38;3.30;;;18.70;61.10;;;;;;5071937;28;20191;-63
2023/10/09 02:53:29;;;;;;;4.90;3.40;;;18.60;61.00;;;;;;5072293;28;20218;-64
2023/10/09 02:59:08;;;;;;;5.40;3.33;;;18.60;60.90;;;;;;4989969;28;20706;-63
2023/10/09 03:01:39;;;;;;;4.97;3.17;;;18.60;60.90;;;;;;5072371;28;20198;-63
2023/10/09 03:04:10;;;;;;;6.13;3.15;;;18.60;60.80;;;;;;5072221;28;20230;-62
2023/10/09 03:06:43;;;;;;;4.68;3.40;;;18.60;60.80;;;;;;5072119;28;20183;-63
2023/10/09 03:09:17;;;;;;;5.90;3.22;;;18.60;60.80;;;;;;5074682;28;20195;-64
2023/10/09 03:11:46;;;;;;;4.60;2.90;;;18.50;60.70;;;;;;5075992;28;20286;-64
2023/10/09 03:14:14;;;;;;;4.03;3.15;;;18.60;60.70;;;;;;5076366;28;20248;-61
2023/10/09 03:16:43;;;;;;;4.80;3.30;;;18.60;60.70;;;;;;5076161;28;20186;-64
2023/10/09 03:19:13;;;;;;;7.53;3.10;;;18.50;60.60;;;;;;5076060;28;20191;-64
2023/10/09 03:21:41;;;;;;;5.32;3.17;;;18.60;60.70;;;;;;5076031;28;20643;-63
2023/10/09 03:24:09;;;;;;;4.75;3.15;;;18.60;60.70;;;;;;5076106;28;20221;-64
2023/10/09 03:26:36;;;;;;;5.90;3.10;;;18.60;60.70;;;;;;5075341;28;20291;-63
2023/10/09 03:29:06;;;;;;;5.68;3.20;;;18.60;60.60;;;;;;5076236;28;20243;-63
2023/10/09 03:31:36;;;;;;;6.03;3.40;;;18.60;60.60;;;;;;5075907;28;20229;-62
2023/10/09 03:34:08;;;;;;;5.18;3.65;;;18.50;60.50;;;;;;5075979;28;20214;-64
2023/10/09 03:36:38;;;;;;;3.60;2.88;;;18.60;60.50;;;;;;5075573;28;20219;-64
2023/10/09 03:39:24;;;;;;;5.78;3.25;;;18.60;60.50;;;;;;5076050;28;20218;-64
2023/10/09 03:41:54;;;;;;;5.15;3.42;;;18.50;60.30;;;;;;5074546;28;20198;-63
2023/10/09 03:44:21;;;;;;;4.28;2.92;;;18.60;60.40;;;;;;5075396;28;20753;-61
2023/10/09 03:46:51;;;;;;;4.60;3.08;;;18.60;60.40;;;;;;5073858;28;20198;-63
2023/10/09 03:49:25;;;;;;;3.13;2.35;;;18.60;60.30;;;;;;5074891;28;20194;-64
2023/10/09 03:51:55;;;;;;;4.60;3.13;;;18.50;60.90;;;;;;5075103;28;20304;-62
2023/10/09 03:54:24;;;;;;;3.83;2.60;;;18.60;60.30;;;;;;5075571;28;20191;-64
2023/10/09 03:56:54;;;;;;;6.63;3.15;;;18.60;60.20;;;;;;5075235;28;20195;-60
2023/10/09 03:59:30;;;;;;;3.47;2.78;;;18.50;60.10;;;;;;5075121;28;20236;-64
2023/10/09 04:01:58;;;;;;;4.68;3.50;;;18.60;60.20;;;;;;5075047;28;20190;-64
2023/10/09 04:04:28;;;;;;;3.85;2.92;;;18.60;60.10;;;;;;5074762;28;20215;-63
2023/10/09 04:06:56;;;;;;;4.25;2.78;;;18.50;60.00;;;;;;5075250;28;20191;-64
2023/10/09 04:12:58;;;;;;;4.00;2.45;;;18.60;60.00;;;;;;5073246;28;20218;-61
2023/10/09 04:15:26;;;;;;;4.75;2.47;;;18.50;59.90;;;;;;5048038;28;20246;-64
2023/10/09 04:17:57;;;;;;;4.18;2.80;;;18.50;59.90;;;;;;5074796;28;20226;-63
2023/10/09 04:23:08;;;;;;;3.78;2.65;;;18.50;59.80;;;;;;5073721;28;20226;-64
2023/10/09 04:25:50;;;;;;;4.35;2.92;;;18.50;59.80;;;;;;5074586;28;20312;-62
2023/10/09 04:28:19;;;;;;;5.13;3.30;;;18.50;59.80;;;;;;5074681;28;20272;-62
2023/10/09 04:30:53;;;;;;;4.50;2.88;;;18.50;59.80;;;;;;5074487;28;20203;-64
2023/10/09 04:33:34;;;;;;;3.80;2.58;;;18.50;59.70;;;;;;5074620;28;20225;-64
2023/10/09 04:36:16;;;;;;;4.25;3.10;;;18.60;59.80;;;;;;5074495;28;20244;-61
2023/10/09 04:38:55;;;;;;;5.80;2.63;;;18.50;59.70;;;;;;5074720;28;20211;-63
2023/10/09 04:41:32;;;;;;;4.18;2.83;;;18.50;59.60;;;;;;5074438;28;20750;-64
2023/10/09 04:44:18;;;;;;;4.45;3.13;;;18.50;59.60;;;;;;5074143;28;20598;-64
2023/10/09 04:47:18;;;;;;;3.95;2.60;;;18.50;59.60;;;;;;5074589;28;20191;-64
2023/10/09 04:49:49;;;;;;;5.07;3.08;;;18.50;59.60;;;;;;5074151;28;20199;-60
2023/10/09 04:52:19;;;;;;;3.50;2.85;;;18.50;59.50;;;;;;5074292;28;20301;-64
2023/10/09 04:55:04;;;;;;;4.13;2.72;;;18.50;59.50;;;;;;5074111;28;20639;-64
2023/10/09 04:57:45;;;;;;;4.03;3.00;;;18.50;59.50;;;;;;5074054;28;20264;-64
2023/10/09 05:00:35;;;;;;;3.72;2.80;;;18.50;59.50;;;;;;5074317;28;20193;-63
2023/10/09 05:03:09;;;;;;;4.47;3.30;;;18.40;59.40;;;;;;5073803;28;20302;-64
2023/10/09 05:08:21;;;;;;;4.35;2.78;;;18.50;59.40;;;;;;5070996;28;20217;-64
2023/10/09 05:11:05;;;;;;;5.03;3.35;;;18.50;59.40;;;;;;5073853;28;20191;-64
2023/10/09 05:13:43;;;;;;;3.45;2.60;;;18.50;59.30;;;;;;5074048;28;20254;-63
2023/10/09 05:16:18;;;;;;;5.45;3.10;;;18.40;59.20;;;;;;5074036;28;20187;-63
2023/10/09 05:18:55;;;;;;;4.40;3.00;;;18.50;59.30;;;;;;5073666;28;20249;-62
2023/10/09 05:21:44;;;;;;;3.35;2.65;;;18.50;59.20;;;;;;5073497;28;20195;-63
2023/10/09 05:28:24;;;;;;;3.88;2.75;;;18.40;59.10;;;;;;5048480;28;20272;-63
2023/10/09 05:30:41;;;;;;;4.03;3.00;;;18.40;59.10;;;;;;4982851;28;20205;-62
2023/10/09 05:33:33;;;;;;;4.15;2.65;;;18.40;59.00;;;;;;4991607;28;20222;-63
2023/10/09 05:36:31;;;;;;;4.28;2.80;;;18.50;59.10;;;;;;4991719;28;20219;-62
2023/10/09 05:41:52;;;;;;;4.38;2.95;;;18.40;59.00;;;;;;4991360;28;20264;-64
2023/10/09 05:47:35;;;;;;;5.88;2.90;;;18.40;59.00;;;;;;4991526;28;20185;-61
2023/10/09 05:53:07;;;;;;;4.40;2.80;;;18.50;59.00;;;;;;4990949;28;20222;-61
2023/10/09 06:04:15;;;;;;;4.60;3.03;;;18.40;58.90;;;;;;5072649;28;20209;-63
2023/10/09 06:06:46;;;;;;;8.05;3.10;;;18.40;59.60;;;;;;5072933;28;20209;-64
2023/10/09 06:09:49;;;;;;;4.65;2.78;;;18.40;58.90;;;;;;5072616;28;20253;-64
2023/10/09 06:12:49;;;;;;;5.25;3.25;;;18.40;58.90;;;;;;5072766;28;20209;-62
2023/10/09 06:15:31;;;;;;;5.38;2.88;;;18.40;58.90;;;;;;5072624;28;20665;-63
2023/10/09 06:18:25;;;;;;;5.43;2.58;;;18.40;58.90;;;;;;5072083;28;20631;-63
2023/10/09 06:23:57;;;;;;;4.68;2.83;;;18.40;58.90;;;;;;5069586;28;20220;-60
2023/10/09 06:26:25;;;;;;;6.72;3.20;;;18.40;58.90;;;;;;5072042;28;20238;-63
2023/10/09 06:29:13;;;;;;;4.72;2.90;;;18.40;58.90;;;;;;5072345;28;20700;-64
2023/10/09 06:32:16;;;;;;;3.53;2.65;;;18.40;58.90;;;;;;5072107;28;20198;-63
2023/10/09 06:34:45;;;;;;;4.95;3.17;;;18.40;58.90;;;;;;5072853;28;20622;-60
2023/10/09 06:37:34;;;;;;;4.00;2.83;;;18.40;58.90;;;;;;5072219;28;20195;-64
2023/10/09 06:41:23;;;;;;;4.53;3.15;;;18.40;58.90;;;;;;5072332;28;20214;-63
2023/10/09 06:43:08;;;;;;;5.00;2.90;;;18.40;58.90;;;;;;5064653;28;20226;-64
2023/10/09 06:45:45;;;;;;;5.03;2.70;;;18.40;58.90;;;;;;5072380;28;20219;-62
2023/10/09 06:51:07;;;;;;;5.65;3.05;;;18.40;58.90;;;;;;5072200;28;20190;-63
2023/10/09 06:56:26;;;;;;;4.45;3.03;;;18.40;58.90;;;;;;5072399;28;20186;-63
2023/10/09 06:58:55;;;;;;;4.68;3.08;;;18.40;58.90;;;;;;5072222;28;20273;-63
2023/10/09 07:01:42;;;;;;;4.38;2.83;;;18.40;58.90;;;;;;5071787;28;20653;-64
2023/10/09 07:04:18;;;;;;;5.68;3.20;;;18.40;58.90;;;;;;5072472;28;20223;-63
2023/10/09 07:06:51;;;;;;;5.63;2.60;;;18.40;58.90;;;;;;5072321;28;20208;-63
2023/10/09 07:09:19;;;;;;;5.18;3.08;;;18.40;59.00;;;;;;5072207;28;20218;-63
2023/10/09 07:12:09;;;;;;;3.78;2.72;;;18.40;58.90;;;;;;5071870;28;20203;-62
2023/10/09 07:20:36;;;;;;;3.90;2.63;;;18.40;58.90;;;;;;5069224;28;20198;-64
2023/10/09 07:23:17;;;;;;;6.15;3.20;;;18.40;58.90;;;;;;5072075;28;20219;-63
2023/10/09 07:25:56;;;;;;;4.72;2.83;;;18.40;58.90;;;;;;5072116;28;20218;-64
2023/10/09 07:28:43;;;;;;;5.90;3.40;;;18.40;58.90;;;;;;5071663;28;20241;-64
2023/10/09 07:31:24;;;;;;;6.72;3.15;;;18.40;58.90;;;;;;5071428;28;20249;-63
2023/10/09 07:33:56;;;;;;;6.75;3.15;;;18.40;58.90;;;;;;5071876;28;20219;-64
2023/10/09 07:36:37;;;;;;;4.60;2.80;;;18.40;58.90;;;;;;5071709;28;20278;-63
2023/10/09 07:39:15;;;;;;;4.20;2.80;;;18.40;58.90;;;;;;5071628;28;20641;-64
2023/10/09 07:41:56;;;;;;;3.65;2.70;;;18.40;58.90;;;;;;5071575;28;20197;-64
2023/10/09 07:44:36;;;;;;;5.38;2.78;;;18.40;58.90;;;;;;5071683;28;20221;-63
2023/10/09 07:47:17;;;;;;;4.47;2.70;;;18.40;59.50;;;;;;5071831;28;20203;-63
2023/10/09 07:49:53;;;;;;;4.68;2.95;;;18.40;58.90;;;;;;5072095;28;20219;-64
2023/10/09 07:52:26;;;;;;;4.50;2.70;;;18.30;58.80;;;;;;5071525;28;20277;-63
2023/10/09 07:55:03;;;;;;;3.70;2.83;;;18.40;58.90;;;;;;5073461;28;20691;-64
2023/10/09 07:58:10;;;;;;;5.75;2.95;;;18.40;58.90;;;;;;5075387;28;20237;-64
2023/10/09 08:01:06;;;;;;;4.20;3.00;;;18.40;58.90;;;;;;5070128;28;20680;-64
2023/10/09 08:03:32;;;;;;;5.55;3.28;;;18.40;58.90;;;;;;5074565;28;20228;-63
2023/10/09 08:06:06;;;;;;;5.07;2.80;;;18.40;58.90;;;;;;5075213;28;20215;-63
2023/10/09 08:09:16;;;;;;;4.10;2.70;;;18.40;58.90;;;;;;5075203;28;20214;-64
2023/10/09 08:14:42;;;;;;;4.35;2.97;;;18.40;58.90;;;;;;5041020;28;20226;-63
2023/10/09 08:17:21;;;;;;;4.53;2.90;;;18.40;58.90;;;;;;5074701;28;20219;-64
2023/10/09 08:19:57;;;;;;;7.13;3.17;;;18.40;58.90;;;;;;5024595;28;20215;-62
2023/10/09 08:22:50;;;;;;;3.38;2.90;;;18.40;58.90;;;;;;5074568;28;20191;-64
2023/10/09 08:25:27;;;;;;;4.53;3.30;;;18.40;58.90;;;;;;5074975;28;20215;-63
2023/10/09 08:27:57;;;;;;;4.03;2.60;;;18.40;58.90;;;;;;5074520;28;20223;-64
2023/10/09 08:33:39;;;;;;;6.88;2.90;;;18.40;58.90;;;;;;5012772;28;20278;-64
2023/10/09 08:36:01;;;;;;;5.30;3.03;;;18.40;58.90;;;;;;5012284;28;20201;-64
2023/10/09 08:38:33;;;;;;;4.05;2.70;;;18.40;58.90;;;;;;5012293;28;20286;-63
2023/10/09 08:43:55;;;;;;;4.13;2.83;;;18.40;58.90;;;;;;5012113;28;20217;-64
2023/10/09 08:46:26;;;;;;;6.00;2.95;;;18.40;58.90;;;;;;5012053;28;20304;-63
2023/10/09 08:48:55;;;;;;;4.90;2.90;;;18.50;59.00;;;;;;5012396;28;20283;-64
2023/10/09 08:51:25;;;;;;;4.75;3.00;;;18.50;59.50;;;;;;5012325;28;20201;-64
2023/10/09 08:53:53;;;;;;;6.97;3.22;;;18.50;59.80;;;;;;5011972;28;20217;-64
2023/10/09 08:56:25;;;;;;;5.88;3.22;;;18.60;60.70;;;;;;5012085;28;20272;-63
2023/10/09 08:58:54;;;;;;;3.88;2.78;;;18.50;61.70;;;;;;5012088;28;20217;-61
2023/10/09 09:01:24;;;;;;;6.75;2.83;;;18.60;62.20;;;;;;5011767;28;20189;-62
2023/10/09 09:03:55;;;;;;;4.18;2.85;;;18.60;62.70;;;;;;5012007;28;20219;-64
2023/10/09 09:06:24;;;;;;;6.35;3.33;;;18.60;62.70;;;;;;5011196;28;20228;-64
2023/10/09 09:08:54;;;;;;;5.93;3.20;;;18.60;62.60;;;;;;5011689;28;20221;-64
2023/10/09 09:11:24;;;;;;;5.68;2.92;;;18.60;62.50;;;;;;5067277;28;20288;-64
2023/10/09 09:14:21;;;;;;;4.97;2.83;;;18.60;62.60;;;;;;5074197;28;20215;-64
2023/10/09 09:16:56;;;;;;;5.70;3.40;;;18.50;62.60;;;;;;5038036;28;20199;-64
2023/10/09 09:19:37;;;;;;;7.38;3.35;;;18.60;63.40;;;;;;5074191;28;20214;-61
2023/10/09 09:22:19;;;;;;;5.40;3.33;;;18.60;62.60;;;;;;5073703;28;20244;-65
2023/10/09 09:25:03;;;;;;;7.35;3.20;;;18.50;62.50;;;;;;5073717;28;20225;-63
2023/10/09 09:27:52;;;;;;;6.10;3.42;;;18.60;62.60;;;;;;5073555;28;20261;-64
2023/10/09 09:30:32;;;;;;;5.30;3.25;;;18.50;62.50;;;;;;5073272;28;20219;-63
2023/10/09 09:33:20;;;;;;;8.57;3.25;;;18.50;62.50;;;;;;5073494;28;20257;-64
2023/10/09 09:36:04;;;;;;;6.18;3.47;;;18.60;62.50;;;;;;5073750;28;20186;-65
2023/10/09 09:38:41;;;;;;;6.13;3.50;;;18.60;62.60;;;;;;5071923;28;20306;-64
2023/10/09 09:41:10;;;;;;;6.63;3.50;;;18.60;62.40;;;;;;5073529;28;20190;-64
2023/10/09 09:43:46;;;;;;;6.60;3.20;;;18.50;62.40;;;;;;5073578;28;20222;-62
2023/10/09 09:46:16;;;;;;;6.45;2.63;;;18.50;62.30;;;;;;5073366;28;20267;-63
2023/10/09 09:48:47;;;;;;;6.60;3.38;;;18.50;62.30;;;;;;5073502;28;20218;-64
2023/10/09 09:51:17;;;;;;;4.15;3.05;;;18.60;62.30;;;;;;5072891;28;20649;-64
2023/10/09 09:53:48;;;;;;;5.68;3.38;;;18.50;62.20;;;;;;5073094;28;20692;-64
2023/10/09 09:56:21;;;;;;;4.93;3.17;;;18.60;62.30;;;;;;5073249;28;20259;-64
2023/10/09 09:58:53;;;;;;;5.10;3.00;;;18.50;62.10;;;;;;5072988;28;20295;-64
2023/10/09 10:01:25;;;;;;;4.65;2.95;;;18.50;62.10;;;;;;5073103;28;20191;-64
2023/10/09 10:03:58;;;;;;;7.80;3.17;;;18.50;62.10;;;;;;5073222;28;20302;-64
2023/10/09 10:06:32;;;;;;;4.40;2.85;;;18.60;62.20;;;;;;5072819;28;20218;-65
2023/10/09 10:08:59;;;;;;;6.80;3.15;;;18.60;62.20;;;;;;5073122;28;20219;-64
2023/10/09 10:11:51;;;;;;;5.00;2.97;;;18.50;62.10;;;;;;5072917;28;20187;-64
2023/10/09 10:14:28;;;;;;;6.13;2.97;;;18.60;62.20;;;;;;5072689;28;20219;-64
2023/10/09 10:17:06;;;;;;;4.10;2.78;;;18.50;62.10;;;;;;5072620;28;20265;-64
2023/10/09 10:20:25;;;;;;;4.10;2.78;;;18.60;62.20;;;;;;5072707;28;20254;-62
2023/10/09 10:22:51;;;;;;;5.32;3.70;;;18.60;62.20;;;;;;5072336;28;20198;-63
2023/10/09 10:25:35;;;;;;;4.18;3.00;;;18.60;62.10;;;;;;5072779;28;20210;-65
2023/10/09 10:28:28;;;;;;;4.45;2.78;;;18.50;62.10;;;;;;5071041;28;20322;-64
2023/10/09 10:31:00;;;;;;;6.75;2.90;;;18.60;62.10;;;;;;5072692;28;20187;-63
2023/10/09 10:33:48;;;;;;;5.20;3.17;;;18.60;62.10;;;;;;5072665;28;20219;-62
2023/10/09 10:37:00;;;;;;;5.25;3.10;;;18.60;62.00;;;;;;5072274;28;20202;-63
2023/10/09 10:42:35;;;;;;;5.95;3.20;;;18.60;62.00;;;;;;5070598;28;20204;-64
2023/10/09 10:45:15;;;;;;;5.55;3.22;;;18.60;62.00;;;;;;5072088;28;20246;-64
2023/10/09 10:47:47;;;;;;;3.85;2.78;;;18.60;62.70;;;;;;5072489;28;20199;-64
2023/10/09 10:50:35;;;;;;;5.50;3.30;;;18.60;61.90;;;;;;5072722;28;20215;-63
2023/10/09 10:53:17;;;;;;;4.55;2.70;;;18.60;61.90;;;;;;5072348;28;20186;-63
2023/10/09 10:56:08;;;;;;;;;;;;;;;;;;;;;
2023/10/09 10:58:47;;;;;;;5.20;3.42;;;18.60;61.90;;;;;;5020122;28;20705;-64
2023/10/09 11:01:14;;;;;;;4.63;3.30;;;18.60;61.90;;;;;;5072382;28;20641;-65
2023/10/09 11:03:58;;;;;;;4.18;2.88;;;18.60;61.80;;;;;;5072342;28;20244;-65
2023/10/09 11:06:41;;;;;;;3.85;2.67;;;18.60;61.80;;;;;;5072055;28;20218;-64
2023/10/09 11:09:20;;;;;;;3.80;2.78;;;18.60;61.80;;;;;;5072127;28;20249;-64
2023/10/09 11:11:50;;;;;;;4.53;2.80;;;18.60;61.80;;;;;;5071934;28;20198;-63
2023/10/09 11:14:23;;;;;;;5.07;3.17;;;18.70;61.90;;;;;;5072155;28;20236;-64
2023/10/09 11:16:57;;;;;;;4.82;2.90;;;18.60;61.80;;;;;;5072293;28;20191;-65
2023/10/09 11:19:31;;;;;;;3.67;2.45;;;18.70;61.90;;;;;;5071801;28;20301;-62
2023/10/09 11:22:27;;;;;;;4.85;3.03;;;18.70;61.90;;;;;;5071938;28;20193;-64
2023/10/09 11:25:11;;;;;;;4.65;3.20;;;18.70;61.90;;;;;;5071857;28;20229;-64
2023/10/09 11:27:40;;;;;;;4.00;2.67;;;18.70;61.80;;;;;;5071260;28;20238;-64
2023/10/09 11:30:10;;;;;;;3.47;2.42;;;18.70;61.80;;;;;;5074702;28;20222;-64
2023/10/09 11:32:39;;;;;;;5.03;2.90;;;18.70;61.80;;;;;;5076005;28;20214;-64
2023/10/09 11:35:19;;;;;;;4.28;2.95;;;18.70;61.80;;;;;;5075847;28;20261;-65
2023/10/09 11:37:56;;;;;;;4.18;2.95;;;18.70;61.80;;;;;;5075903;28;20272;-64
2023/10/09 11:40:42;;;;;;;4.43;3.10;;;18.70;61.80;;;;;;5075884;28;20182;-65
2023/10/09 11:43:13;;;;;;;4.65;2.80;;;18.70;61.80;;;;;;5075259;28;20678;-64
2023/10/09 11:45:53;;;;;;;4.95;2.80;;;18.70;61.80;;;;;;5075318;28;20202;-64
2023/10/09 11:48:27;;;;;;;4.80;2.75;;;18.70;61.70;;;;;;5075674;28;20250;-63
2023/10/09 11:51:18;;;;;;;7.60;2.88;;;18.70;61.70;;;;;;5075377;28;20191;-63
2023/10/09 11:53:55;;;;;;;;;;;;;;;;;;;;;
2023/10/09 12:02:44;;;;;;;4.47;2.65;;;18.70;61.70;;;;;;5013436;28;20205;-64
2023/10/09 12:05:16;;;;;;;5.97;2.95;;;18.70;61.60;;;;;;5013181;28;20217;-63
2023/10/09 12:07:46;;;;;;;4.47;2.78;;;18.70;61.60;;;;;;5063694;28;20218;-64
2023/10/09 12:10:24;;;;;;;4.32;2.58;;;18.70;61.60;;;;;;5075343;28;20226;-64
2023/10/09 12:12:52;;;;;;;3.53;2.45;;;18.70;61.60;;;;;;5075018;28;20191;-64
2023/10/09 12:15:20;;;;;;;5.43;2.97;;;18.70;61.60;;;;;;5075366;28;20222;-63
2023/10/09 12:17:49;;;;;;;4.03;3.00;;;18.70;61.60;;;;;;5074861;28;20183;-63
2023/10/09 12:20:30;;;;;;;3.20;2.42;;;18.70;61.50;;;;;;5075052;28;20218;-64
2023/10/09 12:23:29;;;;;;;4.45;2.67;;;18.70;61.50;;;;;;5074769;28;20191;-63
2023/10/09 12:25:56;;;;;;;4.40;2.35;;;18.70;61.50;;;;;;5074896;28;20208;-64
2023/10/09 12:28:24;;;;;;;4.32;2.78;;;18.70;61.50;;;;;;5074497;28;20230;-62
2023/10/09 12:30:51;;;;;;;4.68;2.60;;;18.70;61.50;;;;;;5074981;28;20199;-64
2023/10/09 12:33:27;;;;;;;4.53;2.47;;;18.70;61.40;;;;;;5074951;28;20202;-64
2023/10/09 12:35:59;;;;;;;3.50;2.40;;;18.70;61.40;;;;;;5074603;28;20187;-63
2023/10/09 12:38:32;;;;;;;3.88;2.50;;;18.70;61.40;;;;;;5074731;28;20187;-62
2023/10/09 12:41:19;;;;;;;5.45;2.60;;;18.80;61.50;;;;;;5073477;28;20218;-63
2023/10/09 12:43:47;;;;;;;5.63;2.80;;;18.80;61.40;;;;;;5074789;28;20226;-63
2023/10/09 12:46:16;;;;;;;3.83;2.45;;;18.80;61.40;;;;;;5074595;28;20223;-64
2023/10/09 12:48:46;;;;;;;4.43;2.47;;;18.80;61.40;;;;;;5074612;28;20223;-64
2023/10/09 12:51:16;;;;;;;3.15;2.50;;;18.70;61.30;;;;;;5074458;28;20192;-64
2023/10/09 12:53:46;;;;;;;4.38;2.50;;;18.70;61.10;;;;;;5074221;28;20289;-65
2023/10/09 12:56:15;;;;;;;4.10;2.75;;;18.80;61.10;;;;;;5073943;28;20683;-64
2023/10/09 12:58:52;;;;;;;2.95;2.30;;;18.70;61.10;;;;;;5074358;28;20218;-63
2023/10/09 13:01:20;;;;;;;4.53;2.53;;;18.80;61.10;;;;;;5074275;28;20202;-64
2023/10/09 13:03:49;;;;;;;3.72;2.63;;;18.80;61.00;;;;;;5073846;28;20219;-64
2023/10/09 13:06:23;;;;;;;3.50;2.50;;;18.80;60.90;;;;;;5073936;28;20746;-64
2023/10/09 13:08:53;;;;;;;4.28;2.20;;;18.70;60.80;;;;;;5073958;28;20326;-64
2023/10/09 13:11:21;;;;;;;3.45;2.40;;;18.80;60.90;;;;;;5073937;28;20191;-64
2023/10/09 13:13:50;;;;;;;3.50;2.45;;;18.80;60.90;;;;;;5074115;28;20250;-64
2023/10/09 13:16:47;;;;;;;4.40;2.55;;;18.70;60.80;;;;;;5073780;28;20202;-64
2023/10/09 13:19:15;;;;;;;3.40;2.00;;;18.80;60.90;;;;;;5073880;28;20679;-64
2023/10/09 13:21:46;;;;;;;3.22;2.30;;;18.80;60.90;;;;;;5073925;28;20214;-64
2023/10/09 13:24:15;;;;;;;4.30;3.03;;;18.80;60.90;;;;;;5073649;28;20560;-63
2023/10/09 13:26:45;;;;;;;4.70;2.50;;;18.80;60.90;;;;;;5073225;28;20627;-64
2023/10/09 13:29:13;;;;;;;4.28;2.70;;;18.80;60.70;;;;;;5073418;28;20266;-63
2023/10/09 13:31:46;;;;;;;4.03;2.30;;;18.80;60.50;;;;;;5073967;28;20210;-65
2023/10/09 13:34:17;;;;;;;4.28;2.40;;;18.80;60.50;;;;;;5073200;28;20305;-64
2023/10/09 13:36:50;;;;;;;4.07;2.50;;;18.90;60.60;;;;;;5073632;28;20195;-64
2023/10/09 13:39:24;;;;;;;4.25;2.40;;;18.80;60.80;;;;;;5073337;28;20225;-64
2023/10/09 13:41:57;;;;;;;3.58;2.40;;;18.80;60.50;;;;;;5073272;28;20187;-64
2023/10/09 13:44:27;;;;;;;3.92;2.22;;;18.90;60.50;;;;;;5073215;28;20225;-65
2023/10/09 13:46:56;;;;;;;4.55;2.67;;;18.80;60.30;;;;;;5073313;28;20218;-65
2023/10/09 13:49:29;;;;;;;4.63;2.33;;;18.80;60.20;;;;;;5072872;28;20292;-64
2023/10/09 13:51:57;;;;;;;4.70;2.70;;;18.80;60.20;;;;;;5072701;28;20652;-63
2023/10/09 13:54:39;;;;;;;6.03;2.83;;;18.80;60.20;;;;;;5073239;28;20218;-64
2023/10/09 13:57:07;;;;;;;3.60;2.50;;;18.80;60.20;;;;;;5073033;28;20657;-64
2023/10/09 13:59:36;;;;;;;4.15;2.65;;;18.80;60.10;;;;;;5073234;28;20219;-64
2023/10/09 14:02:09;;;;;;;4.05;2.30;;;18.90;60.10;;;;;;5073072;28;20191;-64
2023/10/09 14:04:36;;;;;;;2.92;2.22;;;18.80;60.00;;;;;;5073012;28;20226;-63
2023/10/09 14:07:05;;;;;;;6.55;2.80;;;18.80;59.90;;;;;;5073020;28;20261;-64
2023/10/09 14:09:38;;;;;;;3.72;2.67;;;18.80;59.80;;;;;;5073084;28;20619;-64
2023/10/09 14:12:10;;;;;;;3.15;2.30;;;18.80;59.80;;;;;;5072334;28;20668;-64
2023/10/09 14:14:46;;;;;;;3.97;2.42;;;18.80;59.80;;;;;;5072680;28;20700;-63
2023/10/09 14:17:19;;;;;;;4.75;2.42;;;18.80;59.80;;;;;;5072619;28;20767;-63
2023/10/09 14:19:49;;;;;;;4.15;2.28;;;18.80;59.70;;;;;;5072441;28;20630;-65
2023/10/09 14:22:18;;;;;;;3.72;2.40;;;18.80;59.80;;;;;;5072720;28;20187;-64
2023/10/09 14:24:55;;;;;;;4.22;2.75;;;18.80;59.60;;;;;;5072841;28;20221;-64
2023/10/09 14:27:26;;;;;;;3.95;2.50;;;18.90;59.70;;;;;;5072335;28;20240;-65
2023/10/09 14:29:58;;;;;;;5.47;2.50;;;18.90;59.80;;;;;;5072777;28;20210;-64
2023/10/09 14:32:28;;;;;;;4.85;2.83;;;18.90;59.60;;;;;;5072713;28;20190;-63
2023/10/09 14:35:00;;;;;;;5.28;2.67;;;18.90;59.50;;;;;;5072620;28;20371;-66
2023/10/09 14:43:41;;;;;;;6.05;2.45;;;18.90;59.30;;;;;;4963280;28;20207;-63
2023/10/09 14:46:14;;;;;;;3.42;2.30;;;18.90;59.40;;;;;;4971567;28;20293;-65
2023/10/09 14:48:45;;;;;;;5.38;2.70;;;18.90;59.30;;;;;;4971048;28;20222;-64
2023/10/09 14:51:13;;;;;;;3.63;2.30;;;18.90;59.30;;;;;;4971271;28;20211;-64
2023/10/09 14:53:50;;;;;;;3.42;2.30;;;18.90;59.30;;;;;;4971167;28;20191;-63
2023/10/09 14:56:28;;;;;;;3.28;2.22;;;18.90;59.30;;;;;;4970995;28;20198;-64